Terminal Aerodrome Forecast
Issued by NWS

Home | Current Version | Previous Version | Text Only | Print | Product List | Glossary On
Versions: 1 2 3 4 5 6 7 8 9 10 11 12 13 14
816
FTUS43 KSGF 130520
TAFJLN
TAF
KJLN 130520Z 1306/1406 20009KT P6SM SKC
     FM131000 20013KT P6SM SKC WS020/24040KT
     FM131500 27014G25KT P6SM SKC
     FM140000 31009KT P6SM SKC
     FM140300 34007KT P6SM FEW250=

USA.gov is the U.S. government's official web portal to all federal, state and local government web resources and services.